sensor_id;sensor_type;location;lat;lon;timestamp;P1;durP1;ratioP1;P2;durP2;ratioP2
12474;SDS011;6302;42.624;23.334;2023-02-25T00:01:16;24.77;;;15.87;;
12474;SDS011;6302;42.624;23.334;2023-02-25T00:03:43;27.77;;;15.47;;
12474;SDS011;6302;42.624;23.334;2023-02-25T00:06:13;24.67;;;15.80;;
12474;SDS011;6302;42.624;23.334;2023-02-25T00:08:44;24.97;;;15.17;;
12474;SDS011;6302;42.624;23.334;2023-02-25T00:11:14;24.27;;;15.60;;
12474;SDS011;6302;42.624;23.334;2023-02-25T00:13:43;23.77;;;14.97;;
12474;SDS011;6302;42.624;23.334;2023-02-25T00:16:23;24.70;;;15.47;;
12474;SDS011;6302;42.624;23.334;2023-02-25T00:18:53;20.97;;;14.43;;
12474;SDS011;6302;42.624;23.334;2023-02-25T00:21:28;25.87;;;15.60;;
12474;SDS011;6302;42.624;23.334;2023-02-25T00:23:55;26.50;;;17.07;;
12474;SDS011;6302;42.624;23.334;2023-02-25T00:26:23;27.27;;;15.53;;
12474;SDS011;6302;42.624;23.334;2023-02-25T00:28:52;23.47;;;15.30;;
12474;SDS011;6302;42.624;23.334;2023-02-25T00:31:25;36.00;;;22.37;;
12474;SDS011;6302;42.624;23.334;2023-02-25T00:33:52;26.13;;;16.97;;
12474;SDS011;6302;42.624;23.334;2023-02-25T00:36:20;31.67;;;18.80;;
12474;SDS011;6302;42.624;23.334;2023-02-25T00:38:48;25.63;;;15.93;;
12474;SDS011;6302;42.624;23.334;2023-02-25T00:41:17;29.27;;;16.00;;
12474;SDS011;6302;42.624;23.334;2023-02-25T00:43:49;22.47;;;14.80;;
12474;SDS011;6302;42.624;23.334;2023-02-25T00:46:20;21.87;;;14.23;;
12474;SDS011;6302;42.624;23.334;2023-02-25T00:48:48;23.47;;;13.90;;
12474;SDS011;6302;42.624;23.334;2023-02-25T00:51:15;19.83;;;13.90;;
12474;SDS011;6302;42.624;23.334;2023-02-25T00:53:44;22.87;;;13.63;;
12474;SDS011;6302;42.624;23.334;2023-02-25T00:56:12;21.37;;;12.73;;
12474;SDS011;6302;42.624;23.334;2023-02-25T00:58:40;21.67;;;12.47;;
12474;SDS011;6302;42.624;23.334;2023-02-25T01:01:16;23.57;;;13.57;;
12474;SDS011;6302;42.624;23.334;2023-02-25T01:03:45;18.53;;;11.43;;
12474;SDS011;6302;42.624;23.334;2023-02-25T01:06:19;18.83;;;12.33;;
12474;SDS011;6302;42.624;23.334;2023-02-25T01:08:47;20.10;;;12.57;;
12474;SDS011;6302;42.624;23.334;2023-02-25T01:11:17;20.33;;;11.53;;
12474;SDS011;6302;42.624;23.334;2023-02-25T01:13:51;18.43;;;11.73;;
12474;SDS011;6302;42.624;23.334;2023-02-25T01:16:23;18.63;;;12.37;;
12474;SDS011;6302;42.624;23.334;2023-02-25T01:18:57;21.87;;;11.93;;
12474;SDS011;6302;42.624;23.334;2023-02-25T01:21:32;19.47;;;12.43;;
12474;SDS011;6302;42.624;23.334;2023-02-25T01:24:01;23.10;;;13.03;;
12474;SDS011;6302;42.624;23.334;2023-02-25T01:26:30;23.37;;;13.33;;
12474;SDS011;6302;42.624;23.334;2023-02-25T01:29:04;19.17;;;13.73;;
12474;SDS011;6302;42.624;23.334;2023-02-25T01:31:34;21.77;;;13.23;;
12474;SDS011;6302;42.624;23.334;2023-02-25T01:34:03;25.47;;;13.57;;
12474;SDS011;6302;42.624;23.334;2023-02-25T01:36:31;23.17;;;14.53;;
12474;SDS011;6302;42.624;23.334;2023-02-25T01:39:01;22.50;;;13.33;;
12474;SDS011;6302;42.624;23.334;2023-02-25T01:41:30;20.87;;;12.87;;
12474;SDS011;6302;42.624;23.334;2023-02-25T01:44:06;17.90;;;12.37;;
12474;SDS011;6302;42.624;23.334;2023-02-25T01:46:40;20.00;;;13.43;;
12474;SDS011;6302;42.624;23.334;2023-02-25T01:49:09;19.80;;;13.13;;
12474;SDS011;6302;42.624;23.334;2023-02-25T01:51:45;22.23;;;13.87;;
12474;SDS011;6302;42.624;23.334;2023-02-25T01:54:15;19.53;;;12.97;;
12474;SDS011;6302;42.624;23.334;2023-02-25T01:56:43;22.33;;;13.70;;
12474;SDS011;6302;42.624;23.334;2023-02-25T01:59:14;21.10;;;12.73;;
12474;SDS011;6302;42.624;23.334;2023-02-25T02:01:49;21.63;;;13.53;;
12474;SDS011;6302;42.624;23.334;2023-02-25T02:04:17;20.63;;;13.93;;
12474;SDS011;6302;42.624;23.334;2023-02-25T02:06:45;21.53;;;13.50;;
12474;SDS011;6302;42.624;23.334;2023-02-25T02:09:17;20.20;;;13.17;;
12474;SDS011;6302;42.624;23.334;2023-02-25T02:11:51;19.37;;;12.13;;
12474;SDS011;6302;42.624;23.334;2023-02-25T02:14:20;23.10;;;12.03;;
12474;SDS011;6302;42.624;23.334;2023-02-25T02:17:04;19.07;;;11.97;;
12474;SDS011;6302;42.624;23.334;2023-02-25T02:19:45;18.37;;;12.23;;
12474;SDS011;6302;42.624;23.334;2023-02-25T02:22:38;21.20;;;12.13;;
12474;SDS011;6302;42.624;23.334;2023-02-25T02:25:24;18.13;;;12.80;;
12474;SDS011;6302;42.624;23.334;2023-02-25T02:28:26;17.97;;;12.17;;
12474;SDS011;6302;42.624;23.334;2023-02-25T02:31:19;20.13;;;13.33;;
12474;SDS011;6302;42.624;23.334;2023-02-25T02:33:55;20.43;;;12.40;;
12474;SDS011;6302;42.624;23.334;2023-02-25T02:36:29;17.53;;;11.90;;
12474;SDS011;6302;42.624;23.334;2023-02-25T02:39:23;20.10;;;13.17;;
12474;SDS011;6302;42.624;23.334;2023-02-25T02:41:56;19.20;;;12.13;;
12474;SDS011;6302;42.624;23.334;2023-02-25T02:44:28;21.97;;;12.50;;
12474;SDS011;6302;42.624;23.334;2023-02-25T02:47:06;17.03;;;11.23;;
12474;SDS011;6302;42.624;23.334;2023-02-25T02:49:41;17.83;;;12.47;;
12474;SDS011;6302;42.624;23.334;2023-02-25T02:52:15;18.20;;;12.07;;
12474;SDS011;6302;42.624;23.334;2023-02-25T02:54:48;19.70;;;11.20;;
12474;SDS011;6302;42.624;23.334;2023-02-25T02:57:22;20.53;;;12.43;;
12474;SDS011;6302;42.624;23.334;2023-02-25T02:59:52;18.63;;;12.40;;
12474;SDS011;6302;42.624;23.334;2023-02-25T03:02:26;18.43;;;12.43;;
12474;SDS011;6302;42.624;23.334;2023-02-25T03:04:58;20.47;;;12.67;;
12474;SDS011;6302;42.624;23.334;2023-02-25T03:07:27;18.07;;;11.50;;
12474;SDS011;6302;42.624;23.334;2023-02-25T03:09:57;17.60;;;11.83;;
12474;SDS011;6302;42.624;23.334;2023-02-25T03:12:27;17.53;;;11.37;;
12474;SDS011;6302;42.624;23.334;2023-02-25T03:14:54;17.23;;;11.43;;
12474;SDS011;6302;42.624;23.334;2023-02-25T03:17:22;20.00;;;11.80;;
12474;SDS011;6302;42.624;23.334;2023-02-25T03:19:55;17.90;;;11.80;;
12474;SDS011;6302;42.624;23.334;2023-02-25T03:22:30;19.27;;;12.07;;
12474;SDS011;6302;42.624;23.334;2023-02-25T03:25:02;21.03;;;12.30;;
12474;SDS011;6302;42.624;23.334;2023-02-25T03:27:36;19.73;;;12.47;;
12474;SDS011;6302;42.624;23.334;2023-02-25T03:30:06;20.60;;;11.97;;
12474;SDS011;6302;42.624;23.334;2023-02-25T03:32:39;21.20;;;12.03;;
12474;SDS011;6302;42.624;23.334;2023-02-25T03:35:19;18.83;;;12.47;;
12474;SDS011;6302;42.624;23.334;2023-02-25T03:38:00;18.57;;;12.13;;
12474;SDS011;6302;42.624;23.334;2023-02-25T03:40:41;19.70;;;12.23;;
12474;SDS011;6302;42.624;23.334;2023-02-25T03:43:13;18.77;;;11.70;;
12474;SDS011;6302;42.624;23.334;2023-02-25T03:45:46;19.30;;;12.13;;
12474;SDS011;6302;42.624;23.334;2023-02-25T03:48:14;20.23;;;11.73;;
12474;SDS011;6302;42.624;23.334;2023-02-25T03:50:46;20.83;;;12.67;;
12474;SDS011;6302;42.624;23.334;2023-02-25T03:53:16;21.90;;;12.10;;
12474;SDS011;6302;42.624;23.334;2023-02-25T03:55:43;19.70;;;12.67;;
12474;SDS011;6302;42.624;23.334;2023-02-25T03:58:10;18.87;;;12.57;;
12474;SDS011;6302;42.624;23.334;2023-02-25T04:00:38;20.80;;;12.27;;
12474;SDS011;6302;42.624;23.334;2023-02-25T04:03:13;24.03;;;12.20;;
12474;SDS011;6302;42.624;23.334;2023-02-25T04:05:39;20.87;;;11.30;;
12474;SDS011;6302;42.624;23.334;2023-02-25T04:08:08;17.13;;;13.03;;
12474;SDS011;6302;42.624;23.334;2023-02-25T04:10:41;18.07;;;11.93;;
12474;SDS011;6302;42.624;23.334;2023-02-25T04:13:08;20.97;;;12.60;;
12474;SDS011;6302;42.624;23.334;2023-02-25T04:15:38;19.27;;;12.70;;
12474;SDS011;6302;42.624;23.334;2023-02-25T04:18:07;22.07;;;13.93;;
12474;SDS011;6302;42.624;23.334;2023-02-25T04:20:37;18.97;;;12.03;;
12474;SDS011;6302;42.624;23.334;2023-02-25T04:23:14;22.17;;;13.37;;
12474;SDS011;6302;42.624;23.334;2023-02-25T04:25:44;18.17;;;12.93;;
12474;SDS011;6302;42.624;23.334;2023-02-25T04:28:12;19.70;;;12.27;;
12474;SDS011;6302;42.624;23.334;2023-02-25T04:30:44;23.57;;;12.70;;
12474;SDS011;6302;42.624;23.334;2023-02-25T04:33:12;23.03;;;13.63;;
12474;SDS011;6302;42.624;23.334;2023-02-25T04:35:39;17.33;;;12.27;;
12474;SDS011;6302;42.624;23.334;2023-02-25T04:38:11;21.63;;;12.87;;
12474;SDS011;6302;42.624;23.334;2023-02-25T04:40:38;21.93;;;12.87;;
12474;SDS011;6302;42.624;23.334;2023-02-25T04:43:05;21.57;;;12.93;;
12474;SDS011;6302;42.624;23.334;2023-02-25T04:45:34;20.50;;;13.17;;
12474;SDS011;6302;42.624;23.334;2023-02-25T04:48:01;20.30;;;12.60;;
12474;SDS011;6302;42.624;23.334;2023-02-25T04:50:28;18.43;;;12.60;;
12474;SDS011;6302;42.624;23.334;2023-02-25T04:52:58;18.07;;;12.30;;
12474;SDS011;6302;42.624;23.334;2023-02-25T04:55:30;24.67;;;13.63;;
12474;SDS011;6302;42.624;23.334;2023-02-25T04:57:57;20.33;;;12.77;;
12474;SDS011;6302;42.624;23.334;2023-02-25T05:00:24;20.13;;;13.13;;
12474;SDS011;6302;42.624;23.334;2023-02-25T05:02:52;22.80;;;13.60;;
12474;SDS011;6302;42.624;23.334;2023-02-25T05:05:19;19.90;;;12.10;;
12474;SDS011;6302;42.624;23.334;2023-02-25T05:07:46;19.17;;;12.70;;
12474;SDS011;6302;42.624;23.334;2023-02-25T05:10:13;19.00;;;11.93;;
12474;SDS011;6302;42.624;23.334;2023-02-25T05:12:42;18.47;;;12.37;;
12474;SDS011;6302;42.624;23.334;2023-02-25T05:15:10;21.37;;;12.70;;
12474;SDS011;6302;42.624;23.334;2023-02-25T05:17:37;17.50;;;12.03;;
12474;SDS011;6302;42.624;23.334;2023-02-25T05:20:05;23.43;;;12.93;;
12474;SDS011;6302;42.624;23.334;2023-02-25T05:22:45;19.67;;;12.03;;
12474;SDS011;6302;42.624;23.334;2023-02-25T05:25:12;25.63;;;12.53;;
12474;SDS011;6302;42.624;23.334;2023-02-25T05:27:40;23.33;;;12.33;;
12474;SDS011;6302;42.624;23.334;2023-02-25T05:30:08;20.50;;;12.47;;
12474;SDS011;6302;42.624;23.334;2023-02-25T05:32:36;20.73;;;12.33;;
12474;SDS011;6302;42.624;23.334;2023-02-25T05:35:05;19.90;;;13.00;;
12474;SDS011;6302;42.624;23.334;2023-02-25T05:37:34;20.03;;;12.50;;
12474;SDS011;6302;42.624;23.334;2023-02-25T05:40:04;20.13;;;12.47;;
12474;SDS011;6302;42.624;23.334;2023-02-25T05:42:33;18.57;;;11.97;;
12474;SDS011;6302;42.624;23.334;2023-02-25T05:45:01;24.83;;;12.90;;
12474;SDS011;6302;42.624;23.334;2023-02-25T05:47:28;23.73;;;13.47;;
12474;SDS011;6302;42.624;23.334;2023-02-25T05:49:55;21.87;;;13.30;;
12474;SDS011;6302;42.624;23.334;2023-02-25T05:52:22;22.63;;;13.30;;
12474;SDS011;6302;42.624;23.334;2023-02-25T05:54:49;20.60;;;12.77;;
12474;SDS011;6302;42.624;23.334;2023-02-25T05:57:15;18.50;;;12.07;;
12474;SDS011;6302;42.624;23.334;2023-02-25T05:59:42;19.40;;;12.83;;
12474;SDS011;6302;42.624;23.334;2023-02-25T06:02:11;24.83;;;12.77;;
12474;SDS011;6302;42.624;23.334;2023-02-25T06:04:38;21.37;;;12.43;;
12474;SDS011;6302;42.624;23.334;2023-02-25T06:07:05;21.07;;;13.20;;
12474;SDS011;6302;42.624;23.334;2023-02-25T06:09:32;23.77;;;13.67;;
12474;SDS011;6302;42.624;23.334;2023-02-25T06:12:00;19.57;;;13.27;;
12474;SDS011;6302;42.624;23.334;2023-02-25T06:14:27;21.33;;;12.20;;
12474;SDS011;6302;42.624;23.334;2023-02-25T06:16:53;24.17;;;13.70;;
12474;SDS011;6302;42.624;23.334;2023-02-25T06:19:22;21.70;;;13.60;;
12474;SDS011;6302;42.624;23.334;2023-02-25T06:21:50;23.07;;;15.30;;
12474;SDS011;6302;42.624;23.334;2023-02-25T06:24:18;25.60;;;14.97;;
12474;SDS011;6302;42.624;23.334;2023-02-25T06:29:39;25.77;;;15.87;;
12474;SDS011;6302;42.624;23.334;2023-02-25T06:32:06;21.57;;;14.10;;
12474;SDS011;6302;42.624;23.334;2023-02-25T06:34:34;25.60;;;15.57;;
12474;SDS011;6302;42.624;23.334;2023-02-25T06:37:01;26.93;;;14.17;;
12474;SDS011;6302;42.624;23.334;2023-02-25T06:39:28;19.10;;;13.20;;
12474;SDS011;6302;42.624;23.334;2023-02-25T06:41:55;26.70;;;14.90;;
12474;SDS011;6302;42.624;23.334;2023-02-25T06:44:21;23.80;;;14.73;;
12474;SDS011;6302;42.624;23.334;2023-02-25T06:46:49;27.93;;;14.73;;
12474;SDS011;6302;42.624;23.334;2023-02-25T06:49:16;29.60;;;14.87;;
12474;SDS011;6302;42.624;23.334;2023-02-25T06:51:44;22.50;;;14.03;;
12474;SDS011;6302;42.624;23.334;2023-02-25T06:54:13;28.07;;;13.67;;
12474;SDS011;6302;42.624;23.334;2023-02-25T06:56:40;24.03;;;13.43;;
12474;SDS011;6302;42.624;23.334;2023-02-25T06:59:07;27.20;;;13.07;;
12474;SDS011;6302;42.624;23.334;2023-02-25T07:01:34;22.03;;;13.00;;
12474;SDS011;6302;42.624;23.334;2023-02-25T07:04:01;24.37;;;13.03;;
12474;SDS011;6302;42.624;23.334;2023-02-25T07:06:28;21.00;;;12.87;;
12474;SDS011;6302;42.624;23.334;2023-02-25T07:08:56;19.37;;;12.83;;
12474;SDS011;6302;42.624;23.334;2023-02-25T07:11:28;23.90;;;12.47;;
12474;SDS011;6302;42.624;23.334;2023-02-25T07:13:57;23.47;;;11.87;;
12474;SDS011;6302;42.624;23.334;2023-02-25T07:16:24;19.83;;;11.90;;
12474;SDS011;6302;42.624;23.334;2023-02-25T07:18:51;20.57;;;11.93;;
12474;SDS011;6302;42.624;23.334;2023-02-25T07:21:18;17.77;;;11.50;;
12474;SDS011;6302;42.624;23.334;2023-02-25T07:23:45;18.00;;;11.17;;
12474;SDS011;6302;42.624;23.334;2023-02-25T07:26:13;18.33;;;11.33;;
12474;SDS011;6302;42.624;23.334;2023-02-25T07:28:41;20.60;;;10.97;;
12474;SDS011;6302;42.624;23.334;2023-02-25T07:31:09;17.73;;;11.30;;
12474;SDS011;6302;42.624;23.334;2023-02-25T07:33:38;23.10;;;11.30;;
12474;SDS011;6302;42.624;23.334;2023-02-25T07:36:05;19.20;;;11.73;;
12474;SDS011;6302;42.624;23.334;2023-02-25T07:38:32;18.23;;;11.53;;
12474;SDS011;6302;42.624;23.334;2023-02-25T07:41:02;21.43;;;11.90;;
12474;SDS011;6302;42.624;23.334;2023-02-25T07:43:31;17.73;;;11.40;;
12474;SDS011;6302;42.624;23.334;2023-02-25T07:45:58;16.67;;;10.87;;
12474;SDS011;6302;42.624;23.334;2023-02-25T07:48:25;19.67;;;10.07;;
12474;SDS011;6302;42.624;23.334;2023-02-25T07:50:51;21.53;;;10.83;;
12474;SDS011;6302;42.624;23.334;2023-02-25T07:53:18;19.27;;;10.87;;
12474;SDS011;6302;42.624;23.334;2023-02-25T07:55:46;18.70;;;10.33;;
12474;SDS011;6302;42.624;23.334;2023-02-25T07:58:13;17.53;;;11.03;;
12474;SDS011;6302;42.624;23.334;2023-02-25T08:00:42;18.87;;;11.43;;
12474;SDS011;6302;42.624;23.334;2023-02-25T08:03:10;17.07;;;10.60;;
12474;SDS011;6302;42.624;23.334;2023-02-25T08:05:37;18.90;;;11.53;;
12474;SDS011;6302;42.624;23.334;2023-02-25T08:08:04;20.73;;;10.40;;
12474;SDS011;6302;42.624;23.334;2023-02-25T08:10:31;17.87;;;9.90;;
12474;SDS011;6302;42.624;23.334;2023-02-25T08:12:59;16.07;;;9.13;;
12474;SDS011;6302;42.624;23.334;2023-02-25T08:15:26;17.07;;;10.70;;
12474;SDS011;6302;42.624;23.334;2023-02-25T08:17:54;23.73;;;11.07;;
12474;SDS011;6302;42.624;23.334;2023-02-25T08:20:22;14.30;;;10.13;;
12474;SDS011;6302;42.624;23.334;2023-02-25T08:22:48;18.23;;;10.03;;
12474;SDS011;6302;42.624;23.334;2023-02-25T08:25:15;22.43;;;9.47;;
12474;SDS011;6302;42.624;23.334;2023-02-25T08:27:43;15.93;;;10.17;;
12474;SDS011;6302;42.624;23.334;2023-02-25T08:30:10;18.00;;;9.67;;
12474;SDS011;6302;42.624;23.334;2023-02-25T08:32:39;17.23;;;9.73;;
12474;SDS011;6302;42.624;23.334;2023-02-25T08:35:08;19.50;;;9.90;;
12474;SDS011;6302;42.624;23.334;2023-02-25T08:37:35;16.40;;;10.00;;
12474;SDS011;6302;42.624;23.334;2023-02-25T08:40:02;15.50;;;9.73;;
12474;SDS011;6302;42.624;23.334;2023-02-25T08:42:33;17.03;;;10.00;;
12474;SDS011;6302;42.624;23.334;2023-02-25T08:45:00;18.90;;;10.20;;
12474;SDS011;6302;42.624;23.334;2023-02-25T08:47:27;17.43;;;11.00;;
12474;SDS011;6302;42.624;23.334;2023-02-25T08:49:54;16.80;;;10.13;;
12474;SDS011;6302;42.624;23.334;2023-02-25T08:52:22;14.63;;;9.60;;
12474;SDS011;6302;42.624;23.334;2023-02-25T08:54:49;19.57;;;9.40;;
12474;SDS011;6302;42.624;23.334;2023-02-25T08:57:16;24.27;;;11.00;;
12474;SDS011;6302;42.624;23.334;2023-02-25T08:59:42;15.60;;;9.83;;
12474;SDS011;6302;42.624;23.334;2023-02-25T09:02:10;16.60;;;9.70;;
12474;SDS011;6302;42.624;23.334;2023-02-25T09:04:39;18.40;;;9.83;;
12474;SDS011;6302;42.624;23.334;2023-02-25T09:07:06;16.73;;;9.90;;
12474;SDS011;6302;42.624;23.334;2023-02-25T09:09:34;15.77;;;8.80;;
12474;SDS011;6302;42.624;23.334;2023-02-25T09:12:01;13.03;;;7.07;;
12474;SDS011;6302;42.624;23.334;2023-02-25T09:14:29;20.87;;;5.17;;
12474;SDS011;6302;42.624;23.334;2023-02-25T09:16:56;13.30;;;4.93;;
12474;SDS011;6302;42.624;23.334;2023-02-25T09:19:23;13.50;;;7.67;;
12474;SDS011;6302;42.624;23.334;2023-02-25T09:21:49;12.33;;;5.37;;
12474;SDS011;6302;42.624;23.334;2023-02-25T09:24:16;7.83;;;5.30;;
12474;SDS011;6302;42.624;23.334;2023-02-25T09:26:45;11.20;;;4.43;;
12474;SDS011;6302;42.624;23.334;2023-02-25T09:29:12;8.57;;;5.10;;
12474;SDS011;6302;42.624;23.334;2023-02-25T09:31:39;14.30;;;4.07;;
12474;SDS011;6302;42.624;23.334;2023-02-25T09:34:07;14.70;;;4.70;;
12474;SDS011;6302;42.624;23.334;2023-02-25T09:36:35;14.90;;;4.13;;
12474;SDS011;6302;42.624;23.334;2023-02-25T09:39:02;15.50;;;4.23;;
12474;SDS011;6302;42.624;23.334;2023-02-25T09:41:34;14.70;;;4.40;;
12474;SDS011;6302;42.624;23.334;2023-02-25T09:44:11;15.17;;;4.77;;
12474;SDS011;6302;42.624;23.334;2023-02-25T09:46:44;15.57;;;3.67;;
12474;SDS011;6302;42.624;23.334;2023-02-25T09:49:16;11.87;;;4.27;;
12474;SDS011;6302;42.624;23.334;2023-02-25T09:51:51;14.97;;;4.57;;
12474;SDS011;6302;42.624;23.334;2023-02-25T09:54:24;8.77;;;3.43;;
12474;SDS011;6302;42.624;23.334;2023-02-25T09:56:59;14.30;;;4.70;;
12474;SDS011;6302;42.624;23.334;2023-02-25T09:59:29;11.70;;;4.30;;
12474;SDS011;6302;42.624;23.334;2023-02-25T10:01:58;11.40;;;4.93;;
12474;SDS011;6302;42.624;23.334;2023-02-25T10:04:33;12.90;;;4.80;;
12474;SDS011;6302;42.624;23.334;2023-02-25T10:07:13;18.17;;;5.07;;
12474;SDS011;6302;42.624;23.334;2023-02-25T10:09:44;15.37;;;4.80;;
12474;SDS011;6302;42.624;23.334;2023-02-25T10:12:18;14.87;;;3.60;;
12474;SDS011;6302;42.624;23.334;2023-02-25T10:15:13;11.27;;;4.13;;
12474;SDS011;6302;42.624;23.334;2023-02-25T10:17:53;13.93;;;4.43;;
12474;SDS011;6302;42.624;23.334;2023-02-25T10:20:42;15.47;;;4.67;;
12474;SDS011;6302;42.624;23.334;2023-02-25T10:23:22;9.10;;;4.07;;
12474;SDS011;6302;42.624;23.334;2023-02-25T10:25:55;13.37;;;5.20;;
12474;SDS011;6302;42.624;23.334;2023-02-25T10:28:24;11.23;;;4.37;;
12474;SDS011;6302;42.624;23.334;2023-02-25T10:30:55;11.47;;;4.73;;
12474;SDS011;6302;42.624;23.334;2023-02-25T10:33:26;12.20;;;4.30;;
12474;SDS011;6302;42.624;23.334;2023-02-25T10:35:58;12.77;;;3.70;;
12474;SDS011;6302;42.624;23.334;2023-02-25T10:38:33;14.70;;;4.93;;
12474;SDS011;6302;42.624;23.334;2023-02-25T10:41:02;13.03;;;3.80;;
12474;SDS011;6302;42.624;23.334;2023-02-25T10:43:32;13.03;;;4.00;;
12474;SDS011;6302;42.624;23.334;2023-02-25T10:46:02;9.47;;;3.90;;
12474;SDS011;6302;42.624;23.334;2023-02-25T10:48:34;13.63;;;4.00;;
12474;SDS011;6302;42.624;23.334;2023-02-25T10:51:04;15.63;;;4.53;;
12474;SDS011;6302;42.624;23.334;2023-02-25T10:53:36;12.40;;;4.43;;
12474;SDS011;6302;42.624;23.334;2023-02-25T10:56:04;13.10;;;4.30;;
12474;SDS011;6302;42.624;23.334;2023-02-25T10:58:34;12.47;;;4.50;;
12474;SDS011;6302;42.624;23.334;2023-02-25T11:01:14;10.50;;;3.80;;
12474;SDS011;6302;42.624;23.334;2023-02-25T11:03:44;9.53;;;4.10;;
12474;SDS011;6302;42.624;23.334;2023-02-25T11:06:19;12.47;;;4.60;;
12474;SDS011;6302;42.624;23.334;2023-02-25T11:08:49;16.20;;;4.20;;
12474;SDS011;6302;42.624;23.334;2023-02-25T11:11:18;17.10;;;4.67;;
12474;SDS011;6302;42.624;23.334;2023-02-25T11:13:54;10.10;;;4.00;;
12474;SDS011;6302;42.624;23.334;2023-02-25T11:16:26;16.33;;;4.10;;
12474;SDS011;6302;42.624;23.334;2023-02-25T11:18:55;11.80;;;3.87;;
12474;SDS011;6302;42.624;23.334;2023-02-25T11:21:29;13.43;;;4.10;;
12474;SDS011;6302;42.624;23.334;2023-02-25T11:23:59;10.90;;;3.77;;
12474;SDS011;6302;42.624;23.334;2023-02-25T11:26:28;15.00;;;4.83;;
12474;SDS011;6302;42.624;23.334;2023-02-25T11:28:58;18.37;;;4.23;;
12474;SDS011;6302;42.624;23.334;2023-02-25T11:31:30;13.87;;;4.00;;
12474;SDS011;6302;42.624;23.334;2023-02-25T11:34:01;13.83;;;4.90;;
12474;SDS011;6302;42.624;23.334;2023-02-25T11:36:31;11.70;;;4.33;;
12474;SDS011;6302;42.624;23.334;2023-02-25T11:39:10;16.03;;;6.77;;
12474;SDS011;6302;42.624;23.334;2023-02-25T11:41:41;17.10;;;6.10;;
12474;SDS011;6302;42.624;23.334;2023-02-25T11:44:16;18.93;;;5.47;;
12474;SDS011;6302;42.624;23.334;2023-02-25T11:46:49;7.87;;;3.50;;
12474;SDS011;6302;42.624;23.334;2023-02-25T11:49:23;14.57;;;4.47;;
12474;SDS011;6302;42.624;23.334;2023-02-25T11:52:04;11.00;;;4.67;;
12474;SDS011;6302;42.624;23.334;2023-02-25T11:54:37;12.07;;;4.43;;
12474;SDS011;6302;42.624;23.334;2023-02-25T11:57:16;11.00;;;3.97;;
12474;SDS011;6302;42.624;23.334;2023-02-25T11:59:51;13.83;;;4.63;;
12474;SDS011;6302;42.624;23.334;2023-02-25T12:02:34;8.10;;;4.80;;
12474;SDS011;6302;42.624;23.334;2023-02-25T12:08:09;12.07;;;3.83;;
12474;SDS011;6302;42.624;23.334;2023-02-25T12:17:07;12.03;;;4.40;;
12474;SDS011;6302;42.624;23.334;2023-02-25T12:19:54;13.60;;;4.33;;
12474;SDS011;6302;42.624;23.334;2023-02-25T12:22:46;11.00;;;4.33;;
12474;SDS011;6302;42.624;23.334;2023-02-25T12:25:33;10.93;;;4.70;;
12474;SDS011;6302;42.624;23.334;2023-02-25T12:31:05;14.60;;;4.93;;
12474;SDS011;6302;42.624;23.334;2023-02-25T12:33:52;12.13;;;4.60;;
12474;SDS011;6302;42.624;23.334;2023-02-25T12:39:47;12.50;;;4.20;;
12474;SDS011;6302;42.624;23.334;2023-02-25T12:45:27;10.07;;;4.80;;
12474;SDS011;6302;42.624;23.334;2023-02-25T12:48:21;9.87;;;5.00;;
12474;SDS011;6302;42.624;23.334;2023-02-25T12:54:06;17.13;;;5.17;;
12474;SDS011;6302;42.624;23.334;2023-02-25T12:57:00;12.40;;;4.30;;
12474;SDS011;6302;42.624;23.334;2023-02-25T12:59:38;14.03;;;5.07;;
12474;SDS011;6302;42.624;23.334;2023-02-25T13:02:26;11.20;;;4.67;;
12474;SDS011;6302;42.624;23.334;2023-02-25T13:05:17;7.53;;;4.13;;
12474;SDS011;6302;42.624;23.334;2023-02-25T13:11:04;15.80;;;3.70;;
12474;SDS011;6302;42.624;23.334;2023-02-25T13:16:54;8.87;;;4.33;;
12474;SDS011;6302;42.624;23.334;2023-02-25T13:22:49;14.87;;;5.13;;
12474;SDS011;6302;42.624;23.334;2023-02-25T13:25:23;10.33;;;4.53;;
12474;SDS011;6302;42.624;23.334;2023-02-25T13:28:13;12.70;;;3.93;;
12474;SDS011;6302;42.624;23.334;2023-02-25T13:31:01;7.20;;;3.83;;
12474;SDS011;6302;42.624;23.334;2023-02-25T13:33:40;13.53;;;5.00;;
12474;SDS011;6302;42.624;23.334;2023-02-25T13:36:25;10.57;;;4.93;;
12474;SDS011;6302;42.624;23.334;2023-02-25T13:39:11;8.43;;;3.57;;
12474;SDS011;6302;42.624;23.334;2023-02-25T13:41:54;13.23;;;4.20;;
12474;SDS011;6302;42.624;23.334;2023-02-25T13:50:27;11.60;;;4.37;;
12474;SDS011;6302;42.624;23.334;2023-02-25T13:53:11;10.13;;;4.63;;
12474;SDS011;6302;42.624;23.334;2023-02-25T13:59:15;12.93;;;5.20;;
12474;SDS011;6302;42.624;23.334;2023-02-25T14:02:00;16.20;;;4.73;;
12474;SDS011;6302;42.624;23.334;2023-02-25T14:07:49;11.03;;;4.47;;
12474;SDS011;6302;42.624;23.334;2023-02-25T14:10:30;9.40;;;4.07;;
12474;SDS011;6302;42.624;23.334;2023-02-25T14:13:15;9.60;;;4.20;;
12474;SDS011;6302;42.624;23.334;2023-02-25T14:16:00;8.97;;;4.20;;
12474;SDS011;6302;42.624;23.334;2023-02-25T14:21:34;5.77;;;3.87;;
12474;SDS011;6302;42.624;23.334;2023-02-25T14:24:14;13.40;;;4.57;;
12474;SDS011;6302;42.624;23.334;2023-02-25T14:26:49;7.57;;;4.50;;
12474;SDS011;6302;42.624;23.334;2023-02-25T14:29:33;12.57;;;5.03;;
12474;SDS011;6302;42.624;23.334;2023-02-25T14:38:25;10.63;;;4.47;;
12474;SDS011;6302;42.624;23.334;2023-02-25T14:41:08;12.40;;;4.13;;
12474;SDS011;6302;42.624;23.334;2023-02-25T14:43:53;12.80;;;4.23;;
12474;SDS011;6302;42.624;23.334;2023-02-25T14:46:25;15.03;;;3.80;;
12474;SDS011;6302;42.624;23.334;2023-02-25T14:48:58;13.73;;;4.20;;
12474;SDS011;6302;42.624;23.334;2023-02-25T14:51:42;15.93;;;5.30;;
12474;SDS011;6302;42.624;23.334;2023-02-25T15:04:17;13.53;;;5.00;;
12474;SDS011;6302;42.624;23.334;2023-02-25T15:07:11;11.77;;;5.00;;
12474;SDS011;6302;42.624;23.334;2023-02-25T15:10:00;11.67;;;5.07;;
12474;SDS011;6302;42.624;23.334;2023-02-25T15:15:49;13.07;;;4.63;;
12474;SDS011;6302;42.624;23.334;2023-02-25T15:24:09;9.30;;;5.17;;
12474;SDS011;6302;42.624;23.334;2023-02-25T15:26:58;10.67;;;5.57;;
12474;SDS011;6302;42.624;23.334;2023-02-25T15:32:21;13.30;;;4.13;;
12474;SDS011;6302;42.624;23.334;2023-02-25T15:34:53;9.20;;;4.20;;
12474;SDS011;6302;42.624;23.334;2023-02-25T15:37:32;10.57;;;4.37;;
12474;SDS011;6302;42.624;23.334;2023-02-25T15:40:40;8.27;;;4.20;;
12474;SDS011;6302;42.624;23.334;2023-02-25T15:51:57;8.47;;;4.23;;
12474;SDS011;6302;42.624;23.334;2023-02-25T15:57:34;11.60;;;4.67;;
12474;SDS011;6302;42.624;23.334;2023-02-25T16:00:18;10.33;;;4.67;;
12474;SDS011;6302;42.624;23.334;2023-02-25T16:03:24;12.47;;;4.70;;
12474;SDS011;6302;42.624;23.334;2023-02-25T16:06:07;9.93;;;4.57;;
12474;SDS011;6302;42.624;23.334;2023-02-25T16:08:39;11.37;;;4.57;;
12474;SDS011;6302;42.624;23.334;2023-02-25T16:11:14;11.03;;;4.83;;
12474;SDS011;6302;42.624;23.334;2023-02-25T16:13:49;11.63;;;4.77;;
12474;SDS011;6302;42.624;23.334;2023-02-25T16:16:17;9.17;;;4.20;;
12474;SDS011;6302;42.624;23.334;2023-02-25T16:18:47;10.60;;;4.87;;
12474;SDS011;6302;42.624;23.334;2023-02-25T16:21:18;10.33;;;4.97;;
12474;SDS011;6302;42.624;23.334;2023-02-25T16:23:50;12.60;;;4.67;;
12474;SDS011;6302;42.624;23.334;2023-02-25T16:26:27;12.07;;;4.97;;
12474;SDS011;6302;42.624;23.334;2023-02-25T16:29:06;14.07;;;5.13;;